Ana Sayfa
METAR-TAF:

METAR-TAF

Havaalanları :

Beckley, Batı Virginia, Amerika Birleşik Devletleri

Enlem: 37-47-42N, Boylam: 081-07-29W, yükseklik: 763 m

Güncel hava durumu gözlemi

Rapor saat 05:51 UTC de 22 dakika önce yapıldı.
Sakin rüzgar
Sıcaklık -11°C
Nem 85%
Basınç 1028 hPa
Görüş mesafesi: 16.1 km
Açık gökyüzü

METAR: KBKW 220551Z AUTO 00000KT 10SM CLR M11/M13 A3035 RMK AO2 SLP334 I1000 I6000 T11061128 11078 21117 58017

Saat: 01:13 (06:13 UTC)

Tahmin

Rapor saat 05:20 UTC de 53 dakika önce yapıldı.
Ayın 22'si saat 06 UTC'den ayın 23'si saat 06 UTC'ye kadar geçerli Tahmin
Rüzgar kuzeydan kt
Görüş mesafesi: 10 km
Açık gökyüzü
Ayın 22'si saat 0900 UTC'den
Rüzgar değişken yönden 3 kt
Görüş mesafesi: 10 km
25000 ft yükseklikte parçalı çok bulutlu

TAF: KBKW 220520Z 2206/2306 00000KT P6SM SKC FM220900 VRB03KT P6SM BKN250

4.000'den fazla havaalanı için hava durumu gözlemleri ve tahminleri (METAR ve TAF raporları).

Kullanılabilir istasyonlar harita üzerinde sarı ve kırmızı noktalarla gösterilir.

İstasyonun adını görmek için fareyi noktanın üzerinde gezdirin.

Sonrasında hava gözlem ve tahminlerini görmek için tıklayın.

Haritayı değiştirmek için: yaklaştırmak için siyah artı işaretli yeşil düğmeye ve uzaklaştırmak için de eksi işaretli düğmeye hızla tıklayın; bitişik haritalar için yeşil okları kullanın.


METAR-TAF: